Time;durP1;ratioP1;P1;durP2;ratioP2;P2;SDS_P1;SDS_P2;PMS_P1;PMS_P2;Temp;Humidity;BMP_temperature;BMP_pressure;BME280_temperature;BME280_humidity;BME280_pressure;Samples;Min_cycle;Max_cycle;Signal;HPM_P1;HPM_P2
2023/05/25 00:01:33;;;;;;;20.17;12.20;;;;;;;10.86;100.00;102502.00;5010065;28;20649;-74
2023/05/25 00:03:59;;;;;;;17.07;11.97;;;;;;;10.79;100.00;102499.09;5008583;28;20229;-73
2023/05/25 00:06:25;;;;;;;19.00;10.97;;;;;;;10.76;100.00;102493.81;5010452;28;20183;-74
2023/05/25 00:08:54;;;;;;;20.73;11.70;;;;;;;10.70;100.00;102489.28;4993158;28;20249;-73
2023/05/25 00:11:22;;;;;;;20.80;11.30;;;;;;;10.69;100.00;102492.66;4989476;28;20363;-73
2023/05/25 00:13:48;;;;;;;21.53;11.63;;;;;;;10.63;100.00;102487.28;5000096;28;20199;-73
2023/05/25 00:16:13;;;;;;;22.77;11.70;;;;;;;10.56;100.00;102490.34;5007441;28;20191;-73
2023/05/25 00:18:39;;;;;;;16.10;10.90;;;;;;;10.56;100.00;102497.19;5010271;28;20631;-73
2023/05/25 00:21:05;;;;;;;20.77;11.50;;;;;;;10.51;100.00;102504.63;4998779;28;20231;-73
2023/05/25 00:23:31;;;;;;;18.67;11.70;;;;;;;10.48;100.00;102506.19;4993452;28;20723;-74
2023/05/25 00:25:57;;;;;;;19.40;11.63;;;;;;;10.48;100.00;102501.06;5009954;28;20203;-74
2023/05/25 00:28:23;;;;;;;20.87;11.93;;;;;;;10.46;100.00;102507.81;5009787;28;20280;-74
2023/05/25 00:30:49;;;;;;;22.33;11.43;;;;;;;10.47;100.00;102504.44;4995885;28;20644;-73
2023/05/25 00:33:15;;;;;;;20.33;11.03;;;;;;;10.43;100.00;102511.09;5006253;28;20557;-73
2023/05/25 00:35:45;;;;;;;25.57;11.27;;;;;;;10.39;100.00;102509.22;5000943;28;20237;-74
2023/05/25 00:38:16;;;;;;;19.03;11.00;;;;;;;10.37;100.00;102513.34;5009310;28;20183;-73
2023/05/25 00:40:42;;;;;;;18.43;10.60;;;;;;;10.37;100.00;102515.91;5009329;28;20233;-73
2023/05/25 00:43:09;;;;;;;22.20;11.03;;;;;;;10.32;100.00;102513.97;4995433;28;20198;-73
2023/05/25 00:45:34;;;;;;;19.53;11.00;;;;;;;10.31;100.00;102510.53;5009698;28;20187;-73
2023/05/25 00:48:00;;;;;;;20.70;12.27;;;;;;;10.31;100.00;102513.09;5008709;28;20549;-73
2023/05/25 00:50:41;;;;;;;19.33;12.27;;;;;;;10.29;100.00;102518.94;5007354;28;20290;-72
2023/05/25 00:53:07;;;;;;;23.03;13.27;;;;;;;10.28;100.00;102515.47;4996006;28;20190;-73
2023/05/25 00:55:37;;;;;;;20.40;12.23;;;;;;;10.26;100.00;102518.78;5013227;28;20286;-72
2023/05/25 00:58:06;;;;;;;22.80;12.87;;;;;;;10.24;100.00;102508.50;4996933;28;20199;-73
2023/05/25 01:00:36;;;;;;;20.00;13.00;;;;;;;10.23;100.00;102508.41;4999993;28;20214;-73
2023/05/25 01:03:10;;;;;;;26.83;14.17;;;;;;;10.21;100.00;102513.47;5001525;28;20202;-72
2023/05/25 01:05:37;;;;;;;24.63;14.47;;;;;;;10.19;100.00;102509.06;5008593;28;20202;-72
2023/05/25 01:08:06;;;;;;;25.57;15.10;;;;;;;10.19;100.00;102507.38;5007238;28;20205;-72
2023/05/25 01:10:34;;;;;;;24.70;14.53;;;;;;;10.15;100.00;102513.19;5008492;28;20218;-72
2023/05/25 01:13:02;;;;;;;27.57;15.90;;;;;;;10.14;100.00;102510.53;4995055;28;20198;-72
2023/05/25 01:15:29;;;;;;;23.97;15.67;;;;;;;10.09;100.00;102509.44;4995617;28;20724;-72
2023/05/25 01:17:58;;;;;;;28.90;15.47;;;;;;;10.12;100.00;102507.00;5009170;28;20278;-72
2023/05/25 01:20:28;;;;;;;26.67;15.70;;;;;;;10.10;100.00;102506.94;4991943;28;20592;-71
2023/05/25 01:23:12;;;;;;;25.80;15.43;;;;;;;10.08;100.00;102511.13;5001053;28;20210;-72
2023/05/25 01:25:52;;;;;;;24.33;15.63;;;;;;;10.06;100.00;102512.75;5029612;28;20214;-71
2023/05/25 01:28:27;;;;;;;30.03;15.33;;;;;;;10.05;100.00;102521.19;5003360;28;20250;-72
2023/05/25 01:30:56;;;;;;;27.33;16.10;;;;;;;9.99;100.00;102522.53;4999322;28;20194;-72
2023/05/25 01:33:22;;;;;;;27.20;17.10;;;;;;;9.97;100.00;102519.03;5008870;28;20540;-72
2023/05/25 01:35:49;;;;;;;31.17;17.20;;;;;;;9.92;100.00;102513.72;5009054;28;20191;-71
2023/05/25 01:38:16;;;;;;;28.70;16.40;;;;;;;9.84;100.00;102515.00;4992370;28;20209;-74
2023/05/25 01:40:42;;;;;;;22.77;16.27;;;;;;;9.74;100.00;102517.94;5008403;28;20215;-73
2023/05/25 01:43:07;;;;;;;34.17;17.43;;;;;;;9.70;100.00;102504.91;4978348;28;20554;-74
2023/05/25 01:45:33;;;;;;;30.23;17.33;;;;;;;9.69;100.00;102509.16;4983181;28;20190;-73
2023/05/25 01:48:24;;;;;;;33.87;18.07;;;;;;;9.72;100.00;102504.16;4991362;28;20214;-73
2023/05/25 01:51:25;;;;;;;25.83;15.87;;;;;;;9.65;100.00;102506.34;4990183;28;20199;-74
2023/05/25 01:53:57;;;;;;;29.87;15.60;;;;;;;9.63;100.00;102502.84;4980286;28;20234;-74
2023/05/25 01:56:26;;;;;;;29.37;17.07;;;;;;;9.63;100.00;102508.81;5020670;28;20186;-74
2023/05/25 01:58:53;;;;;;;26.87;15.53;;;;;;;9.63;100.00;102506.28;4997308;28;20306;-74
2023/05/25 02:01:19;;;;;;;28.57;16.67;;;;;;;9.61;100.00;102514.66;5033273;28;20206;-74
2023/05/25 02:03:47;;;;;;;26.23;16.00;;;;;;;9.61;100.00;102510.44;4999673;28;20195;-74
2023/05/25 02:06:14;;;;;;;28.23;15.60;;;;;;;9.59;100.00;102511.16;5005572;28;20286;-73
2023/05/25 02:08:40;;;;;;;27.73;16.37;;;;;;;9.62;100.00;102507.06;5012873;28;20214;-74
2023/05/25 02:11:06;;;;;;;30.03;15.23;;;;;;;9.63;100.00;102516.50;4995059;28;20800;-74
2023/05/25 02:13:31;;;;;;;23.13;14.57;;;;;;;9.69;100.00;102518.50;5010542;28;20274;-73
2023/05/25 02:15:56;;;;;;;31.73;16.63;;;;;;;9.72;100.00;102518.66;4997747;28;20191;-74
2023/05/25 02:18:22;;;;;;;28.20;16.97;;;;;;;9.75;100.00;102519.69;4994288;28;20613;-73
2023/05/25 02:20:48;;;;;;;32.10;15.73;;;;;;;9.76;100.00;102518.88;4998307;28;20194;-73
2023/05/25 02:23:13;;;;;;;32.77;16.13;;;;;;;9.78;100.00;102511.28;4994175;28;20532;-73
2023/05/25 02:25:41;;;;;;;26.83;15.90;;;;;;;9.76;100.00;102511.19;4994393;28;20211;-74
2023/05/25 02:28:06;;;;;;;31.57;15.77;;;;;;;9.74;100.00;102509.38;4994591;28;20190;-74
2023/05/25 02:30:32;;;;;;;29.13;14.57;;;;;;;9.71;100.00;102509.19;4993546;28;20260;-73
2023/05/25 02:32:57;;;;;;;26.90;15.17;;;;;;;9.66;100.00;102509.00;5000330;28;20202;-73
2023/05/25 02:35:23;;;;;;;30.37;16.10;;;;;;;9.56;100.00;102514.44;5002076;28;20194;-73
2023/05/25 02:37:49;;;;;;;25.37;14.77;;;;;;;9.52;100.00;102509.09;5012714;28;20195;-73
2023/05/25 02:40:16;;;;;;;26.17;15.23;;;;;;;9.43;100.00;102513.75;5011182;28;20777;-75
2023/05/25 02:42:41;;;;;;;26.53;14.43;;;;;;;9.43;100.00;102513.75;4998812;28;20195;-73
2023/05/25 02:45:11;;;;;;;27.03;15.20;;;;;;;9.38;100.00;102518.63;5011664;28;20579;-73
2023/05/25 02:47:39;;;;;;;34.03;15.27;;;;;;;9.35;100.00;102512.50;5018541;28;20183;-73
2023/05/25 02:50:05;;;;;;;22.63;14.00;;;;;;;9.38;100.00;102504.97;5015611;28;20229;-73
2023/05/25 02:52:34;;;;;;;23.87;13.63;;;;;;;9.39;100.00;102511.81;4980327;28;20193;-74
2023/05/25 02:55:00;;;;;;;23.80;13.87;;;;;;;9.41;100.00;102516.25;5032058;28;20202;-73
2023/05/25 02:57:31;;;;;;;22.13;14.33;;;;;;;9.41;100.00;102512.81;4994424;28;20195;-74
2023/05/25 02:59:57;;;;;;;27.03;13.97;;;;;;;9.41;100.00;102507.69;4998674;28;20215;-73
2023/05/25 03:02:24;;;;;;;28.30;14.97;;;;;;;9.41;100.00;102510.25;5008883;28;20683;-73
2023/05/25 03:04:52;;;;;;;28.20;14.13;;;;;;;9.42;100.00;102519.66;5001060;28;20205;-73
2023/05/25 03:07:19;;;;;;;26.50;13.77;;;;;;;9.41;100.00;102516.25;4996618;28;20223;-72
2023/05/25 03:09:45;;;;;;;28.53;13.40;;;;;;;9.47;100.00;102519.09;4997117;28;20222;-74
2023/05/25 03:12:11;;;;;;;30.57;14.30;;;;;;;9.44;100.00;102516.38;5025093;28;20198;-73
2023/05/25 03:14:36;;;;;;;26.10;13.77;;;;;;;9.43;100.00;102516.28;4993567;28;20195;-72
2023/05/25 03:17:03;;;;;;;23.73;13.20;;;;;;;9.44;100.00;102521.50;5000087;28;20254;-73
2023/05/25 03:19:29;;;;;;;27.60;14.40;;;;;;;9.45;100.00;102523.25;5003947;28;20611;-73
2023/05/25 03:21:54;;;;;;;24.93;13.27;;;;;;;9.46;100.00;102524.13;5011309;28;20782;-73
2023/05/25 03:24:20;;;;;;;26.17;13.93;;;;;;;9.51;100.00;102531.25;4999948;28;20743;-72
2023/05/25 03:26:45;;;;;;;28.80;13.67;;;;;;;9.57;100.00;102535.78;5004225;28;20245;-72
2023/05/25 03:29:11;;;;;;;26.07;14.37;;;;;;;9.60;100.00;102539.38;5015405;28;20273;-73
2023/05/25 03:31:36;;;;;;;23.57;13.20;;;;;;;9.64;100.00;102535.28;5010650;28;20238;-73
2023/05/25 03:34:03;;;;;;;30.57;13.40;;;;;;;9.67;100.00;102528.63;5010373;28;20202;-73
2023/05/25 03:36:31;;;;;;;25.63;12.57;;;;;;;9.71;100.00;102527.09;4998394;28;20192;-73
2023/05/25 03:38:56;;;;;;;25.60;12.80;;;;;;;9.69;100.00;102524.50;4997330;28;20222;-73
2023/05/25 03:41:22;;;;;;;23.77;13.33;;;;;;;9.72;100.00;102531.44;5010361;28;20187;-72
2023/05/25 03:43:48;;;;;;;24.63;13.23;;;;;;;9.77;100.00;102537.66;4978056;28;20187;-72
2023/05/25 03:46:13;;;;;;;35.67;21.07;;;;;;;9.80;100.00;102543.81;4994078;28;20202;-73
2023/05/25 03:48:41;;;;;;;141.10;85.67;;;;;;;9.82;100.00;102543.88;4998833;28;20210;-74
2023/05/25 03:51:07;;;;;;;32.13;16.37;;;;;;;9.80;100.00;102543.81;4999835;28;20283;-72
2023/05/25 03:53:32;;;;;;;27.47;14.47;;;;;;;9.83;100.00;102545.63;4999720;28;20199;-72
2023/05/25 03:55:58;;;;;;;29.27;17.07;;;;;;;9.86;100.00;102548.34;5008581;28;20206;-73
2023/05/25 03:58:23;;;;;;;27.73;15.57;;;;;;;9.90;100.00;102545.16;5010535;28;20887;-72
2023/05/25 04:00:49;;;;;;;27.17;14.63;;;;;;;9.93;100.00;102538.50;4985985;28;20909;-72
2023/05/25 04:03:15;;;;;;;26.23;13.60;;;;;;;9.98;100.00;102546.38;4993876;28;20611;-72
2023/05/25 04:05:42;;;;;;;27.27;13.93;;;;;;;10.03;100.00;102539.81;4998876;28;20286;-73
2023/05/25 04:08:08;;;;;;;23.83;14.37;;;;;;;10.05;100.00;102548.47;4980393;28;20286;-72
2023/05/25 04:10:34;;;;;;;21.50;14.67;;;;;;;10.10;100.00;102554.69;4993432;28;20702;-74
2023/05/25 04:12:59;;;;;;;26.83;14.87;;;;;;;10.16;100.00;102555.00;4992975;28;20195;-71
2023/05/25 04:15:25;;;;;;;27.17;15.27;;;;;;;10.21;100.00;102548.41;4983573;28;20297;-72
2023/05/25 04:18:02;;;;;;;23.97;14.97;;;;;;;10.24;100.00;102558.81;5001770;28;20187;-72
2023/05/25 04:20:28;;;;;;;29.43;17.37;;;;;;;10.26;100.00;102552.94;4996375;28;20214;-71
2023/05/25 04:22:54;;;;;;;34.47;16.40;;;;;;;10.31;100.00;102551.50;4994108;28;20183;-72
2023/05/25 04:25:20;;;;;;;28.37;15.63;;;;;;;10.35;100.00;102563.63;4993739;28;20199;-72
2023/05/25 04:27:45;;;;;;;25.87;16.03;;;;;;;10.35;100.00;102565.31;4992826;28;20187;-73
2023/05/25 04:30:12;;;;;;;30.70;16.50;;;;;;;10.36;100.00;102562.81;4998450;28;20306;-71
2023/05/25 04:33:01;;;;;;;27.07;15.50;;;;;;;10.44;100.00;102569.19;5010720;28;20289;-72
2023/05/25 04:35:50;;;;;;;23.87;13.67;;;;;;;10.41;100.00;102563.06;5003318;28;20238;-73
2023/05/25 04:38:16;;;;;;;25.27;13.60;;;;;;;10.33;100.00;102574.59;4996352;28;20301;-72
2023/05/25 04:40:42;;;;;;;22.10;12.80;;;;;;;10.35;100.00;102573.88;4993973;28;20897;-72
2023/05/25 04:43:10;;;;;;;21.60;12.87;;;;;;;10.34;100.00;102572.13;5010769;28;20195;-74
2023/05/25 04:45:35;;;;;;;22.60;13.17;;;;;;;10.31;100.00;102577.09;4996191;28;20940;-73
2023/05/25 04:48:02;;;;;;;20.80;13.07;;;;;;;10.35;100.00;102584.13;5001021;28;20218;-74
2023/05/25 04:50:27;;;;;;;25.37;13.63;;;;;;;10.36;100.00;102590.09;4994034;28;20253;-73
2023/05/25 04:52:53;;;;;;;25.00;12.43;;;;;;;10.40;100.00;102587.78;4991969;28;20215;-74
2023/05/25 04:55:19;;;;;;;24.07;12.97;;;;;;;10.48;100.00;102590.69;4996264;28;20241;-72
2023/05/25 04:57:44;;;;;;;18.77;11.80;;;;;;;10.49;100.00;102595.91;4983985;28;20194;-72
2023/05/25 05:00:11;;;;;;;23.87;12.47;;;;;;;10.49;100.00;102597.56;5011359;28;20210;-73
2023/05/25 05:02:37;;;;;;;23.77;14.07;;;;;;;10.44;100.00;102596.47;5001578;28;20202;-73
2023/05/25 05:05:04;;;;;;;20.03;12.73;;;;;;;10.44;100.00;102602.47;4981697;28;20226;-74
2023/05/25 05:07:32;;;;;;;19.57;12.90;;;;;;;10.51;100.00;102598.53;4992209;28;20234;-74
2023/05/25 05:09:57;;;;;;;21.30;11.93;;;;;;;10.52;100.00;102608.88;4982085;28;20250;-74
2023/05/25 05:12:24;;;;;;;18.07;10.77;;;;;;;10.52;100.00;102601.19;4974558;28;20257;-75
2023/05/25 05:14:51;;;;;;;20.60;10.27;;;;;;;10.54;100.00;102606.34;4992979;28;20567;-74
2023/05/25 05:17:17;;;;;;;17.43;10.10;;;;;;;10.60;100.00;102604.97;4999558;28;20195;-73
2023/05/25 05:19:44;;;;;;;17.90;10.67;;;;;;;10.67;100.00;102601.00;4993584;28;20207;-74
2023/05/25 05:22:12;;;;;;;28.13;10.67;;;;;;;10.70;100.00;102603.72;5003523;28;20260;-74
2023/05/25 05:24:37;;;;;;;16.37;10.07;;;;;;;10.74;100.00;102601.34;4981908;28;20191;-74
2023/05/25 05:27:03;;;;;;;17.77;10.07;;;;;;;10.84;100.00;102610.38;4989719;28;20668;-73
2023/05/25 05:29:36;;;;;;;19.93;9.60;;;;;;;10.86;100.00;102604.50;5026080;28;20218;-73
2023/05/25 05:32:02;;;;;;;17.23;9.20;;;;;;;10.93;100.00;102613.34;5001058;28;20194;-74
2023/05/25 05:34:27;;;;;;;17.97;8.83;;;;;;;10.95;100.00;102617.75;4990348;28;20195;-73
2023/05/25 05:36:53;;;;;;;19.90;9.33;;;;;;;11.01;100.00;102615.44;4995495;28;20566;-73
2023/05/25 05:39:19;;;;;;;14.80;8.23;;;;;;;11.13;100.00;102625.38;4983289;28;20215;-74
2023/05/25 05:41:45;;;;;;;18.73;8.33;;;;;;;11.24;100.00;102619.09;5009013;28;20206;-73
2023/05/25 05:44:13;;;;;;;19.50;8.00;;;;;;;11.31;100.00;102610.84;5018821;28;20206;-74
2023/05/25 05:46:39;;;;;;;18.33;8.40;;;;;;;11.47;100.00;102608.16;4998054;28;20191;-74
2023/05/25 05:49:05;;;;;;;16.53;8.60;;;;;;;11.59;100.00;102608.66;4980453;28;20247;-74
2023/05/25 05:51:31;;;;;;;16.63;7.67;;;;;;;11.81;100.00;102614.84;5007951;28;20230;-73
2023/05/25 05:53:56;;;;;;;17.87;7.80;;;;;;;11.81;100.00;102612.28;4998050;28;20210;-73
2023/05/25 05:56:22;;;;;;;15.90;7.33;;;;;;;11.86;100.00;102613.34;4978836;28;20218;-73
2023/05/25 05:58:50;;;;;;;18.73;7.77;;;;;;;11.93;100.00;102609.34;5027800;28;20215;-72
2023/05/25 06:01:16;;;;;;;17.03;6.63;;;;;;;11.92;100.00;102621.31;5001946;28;20548;-73
2023/05/25 06:03:42;;;;;;;15.60;6.77;;;;;;;11.89;100.00;102617.75;4990966;28;20190;-73
2023/05/25 06:06:08;;;;;;;16.10;7.00;;;;;;;11.95;100.00;102623.13;4997759;28;20681;-73
2023/05/25 06:08:34;;;;;;;15.37;6.33;;;;;;;11.93;100.00;102628.19;4992459;28;20214;-73
2023/05/25 06:10:59;;;;;;;16.67;7.03;;;;;;;11.95;100.00;102625.69;4999098;28;20199;-73
2023/05/25 06:13:25;;;;;;;13.93;7.13;;;;;;;11.95;100.00;102635.97;4971269;28;20214;-72
2023/05/25 06:15:50;;;;;;;18.13;6.67;;;;;;;11.94;100.00;102629.94;5000793;28;20568;-72
2023/05/25 06:18:21;;;;;;;16.50;7.03;;;;;;;12.01;100.00;102637.09;4992382;28;20206;-72
2023/05/25 06:20:46;;;;;;;14.00;6.20;;;;;;;12.06;100.00;102640.72;4997009;28;20211;-74
2023/05/25 06:23:12;;;;;;;16.80;5.67;;;;;;;12.17;100.00;102643.75;4995334;28;20187;-72
2023/05/25 06:25:39;;;;;;;18.47;6.60;;;;;;;12.30;100.00;102649.47;4999653;28;20226;-71
2023/05/25 06:28:05;;;;;;;15.00;6.17;;;;;;;12.32;100.00;102647.84;5005698;28;20199;-72
2023/05/25 06:30:30;;;;;;;15.93;6.23;;;;;;;12.23;100.00;102646.56;4995018;28;20211;-74
2023/05/25 06:32:56;;;;;;;16.27;5.43;;;;;;;12.29;100.00;102649.38;4996671;28;20195;-72
2023/05/25 06:35:22;;;;;;;15.03;5.40;;;;;;;12.38;100.00;102652.34;5002519;28;20241;-72
2023/05/25 06:37:49;;;;;;;13.27;5.13;;;;;;;12.79;100.00;102650.63;4977412;28;20656;-73
2023/05/25 06:40:17;;;;;;;16.17;5.60;;;;;;;13.21;100.00;102640.28;4999035;28;20708;-71
2023/05/25 06:42:43;;;;;;;17.63;5.83;;;;;;;13.49;100.00;102645.59;4997790;28;20210;-72
2023/05/25 06:45:28;;;;;;;15.83;5.93;;;;;;;13.92;100.00;102639.47;5006882;28;20234;-72
2023/05/25 06:47:53;;;;;;;16.13;5.53;;;;;;;14.13;100.00;102631.59;4995759;28;20280;-73
2023/05/25 06:50:19;;;;;;;16.17;5.40;;;;;;;14.40;100.00;102632.50;5001947;28;20209;-72
2023/05/25 06:52:45;;;;;;;17.90;5.50;;;;;;;14.39;100.00;102623.03;4996496;28;20194;-71
2023/05/25 06:55:11;;;;;;;15.87;4.63;;;;;;;14.50;100.00;102621.69;5004958;28;20225;-73
2023/05/25 06:57:37;;;;;;;16.83;5.50;;;;;;;14.53;100.00;102617.50;5009546;28;20199;-71
2023/05/25 07:00:06;;;;;;;13.27;4.77;;;;;;;14.29;100.00;102621.88;5004407;28;20313;-72
2023/05/25 07:02:31;;;;;;;13.07;5.00;;;;;;;14.19;100.00;102626.63;5009352;28;20239;-71
2023/05/25 07:04:57;;;;;;;15.80;4.90;;;;;;;14.21;100.00;102619.84;5010828;28;21089;-73
2023/05/25 07:07:22;;;;;;;11.73;4.63;;;;;;;14.10;100.00;102642.69;4980944;28;20200;-72
2023/05/25 07:09:48;;;;;;;14.70;4.77;;;;;;;14.01;100.00;102647.50;5011483;28;20250;-72
2023/05/25 07:12:13;;;;;;;16.03;5.03;;;;;;;14.03;100.00;102638.13;5009537;28;20199;-72
2023/05/25 07:14:39;;;;;;;17.50;5.33;;;;;;;14.34;100.00;102635.78;5011897;28;20675;-73
2023/05/25 07:17:05;;;;;;;13.67;4.77;;;;;;;14.22;100.00;102612.19;5009258;28;20203;-73
2023/05/25 07:19:31;;;;;;;17.77;5.10;;;;;;;14.60;100.00;102623.72;5010754;28;20570;-74
2023/05/25 07:21:56;;;;;;;15.10;4.23;;;;;;;15.13;100.00;102593.56;5001735;28;20202;-73
2023/05/25 07:24:22;;;;;;;12.57;4.80;;;;;;;15.47;100.00;102580.81;5005250;28;20684;-72
2023/05/25 07:26:48;;;;;;;12.83;4.47;;;;;;;15.80;100.00;102526.59;5011515;28;20202;-72
2023/05/25 07:29:14;;;;;;;13.73;4.73;;;;;;;15.91;100.00;102450.19;4981971;28;20230;-74
2023/05/25 07:31:39;;;;;;;13.77;4.77;;;;;;;16.35;100.00;102472.78;5011259;28;20225;-73
2023/05/25 07:34:05;;;;;;;15.87;4.60;;;;;;;16.60;100.00;102411.28;5004090;28;20218;-73
2023/05/25 07:36:30;;;;;;;15.57;4.33;;;;;;;16.66;100.00;102400.16;5009491;28;20572;-73
2023/05/25 07:38:56;;;;;;;15.47;5.00;;;;;;;16.87;100.00;102418.72;5011470;28;20617;-72
2023/05/25 07:41:22;;;;;;;14.67;4.50;;;;;;;16.36;100.00;102425.38;5028661;28;20579;-73
2023/05/25 07:43:47;;;;;;;12.77;4.67;;;;;;;16.15;100.00;102437.84;5010823;28;20221;-72
2023/05/25 07:46:13;;;;;;;12.37;4.37;;;;;;;16.01;100.00;102472.81;5007583;28;20206;-73
2023/05/25 07:48:38;;;;;;;13.40;4.40;;;;;;;16.65;100.00;102425.19;4998210;28;20219;-73
2023/05/25 07:51:04;;;;;;;11.63;4.30;;;;;;;17.01;100.00;102378.44;4990468;28;20318;-72
2023/05/25 07:53:30;;;;;;;12.70;4.20;;;;;;;16.86;100.00;102331.56;5007223;28;20563;-73
2023/05/25 07:55:55;;;;;;;15.67;4.60;;;;;;;16.66;100.00;102357.06;5010995;28;20266;-74
2023/05/25 07:58:20;;;;;;;11.37;3.73;;;;;;;17.10;100.00;102392.41;5009394;28;20210;-73
2023/05/25 08:00:48;;;;;;;16.07;4.67;;;;;;;17.57;100.00;102328.47;5010161;28;20242;-71
2023/05/25 08:03:13;;;;;;;12.13;4.60;;;;;;;17.65;100.00;102301.81;5010285;28;20541;-72
2023/05/25 08:05:39;;;;;;;13.47;4.87;;;;;;;17.77;100.00;102340.84;5010137;28;20198;-72
2023/05/25 08:08:04;;;;;;;15.37;5.20;;;;;;;17.54;100.00;102337.06;5008162;28;20679;-72
2023/05/25 08:10:31;;;;;;;11.03;4.20;;;;;;;17.18;100.00;102379.59;5008158;28;20211;-73
2023/05/25 08:12:57;;;;;;;13.10;5.00;;;;;;;17.52;100.00;102364.66;4994466;28;20230;-73
2023/05/25 08:15:23;;;;;;;15.23;5.20;;;;;;;17.85;100.00;102331.47;5002873;28;20191;-73
2023/05/25 08:17:49;;;;;;;12.17;4.63;;;;;;;18.07;100.00;102297.22;5009902;28;20260;-72
2023/05/25 08:20:16;;;;;;;12.97;4.47;;;;;;;18.33;100.00;102254.28;5009551;28;20222;-73
2023/05/25 08:22:42;;;;;;;12.77;4.73;;;;;;;18.34;100.00;102245.66;5010101;28;20194;-72
2023/05/25 08:25:08;;;;;;;15.73;5.30;;;;;;;18.12;100.00;102212.56;5002660;28;20290;-72
2023/05/25 08:27:34;;;;;;;10.73;4.67;;;;;;;18.35;100.00;102252.59;5015564;28;20209;-72
2023/05/25 08:29:59;;;;;;;12.40;4.67;;;;;;;18.35;100.00;102250.00;5001070;28;20334;-72
2023/05/25 08:32:25;;;;;;;14.47;4.73;;;;;;;18.23;100.00;102254.16;4990811;28;20193;-73
2023/05/25 08:34:50;;;;;;;14.17;4.40;;;;;;;18.63;100.00;102212.22;4976061;28;20252;-72
2023/05/25 08:37:16;;;;;;;17.47;5.00;;;;;;;18.48;96.25;102174.03;5010076;28;20210;-72
2023/05/25 08:39:42;;;;;;;16.77;4.90;;;;;;;18.26;100.00;102228.25;5008567;28;20772;-72
2023/05/25 08:42:08;;;;;;;15.37;5.20;;;;;;;18.52;100.00;102208.66;5005356;28;20281;-72
2023/05/25 08:44:35;;;;;;;16.73;4.80;;;;;;;18.87;94.06;102179.53;5009548;28;20572;-72
2023/05/25 08:47:07;;;;;;;13.97;4.70;;;;;;;19.11;96.91;102187.47;5009695;28;20210;-71
2023/05/25 08:49:40;;;;;;;10.30;4.20;;;;;;;19.13;86.93;102128.63;5007834;28;20265;-72
2023/05/25 08:52:12;;;;;;;16.33;4.77;;;;;;;19.56;87.42;102140.97;4988910;28;20199;-74
2023/05/25 08:54:41;;;;;;;13.93;5.13;;;;;;;19.87;88.69;102160.13;5009504;28;20306;-71
2023/05/25 08:57:14;;;;;;;17.43;5.17;;;;;;;20.24;82.06;102144.63;5005519;28;20191;-71
2023/05/25 08:59:46;;;;;;;15.07;5.07;;;;;;;19.91;83.92;102177.47;5020893;28;20710;-71
2023/05/25 09:02:15;;;;;;;14.13;5.13;;;;;;;19.13;81.98;102184.88;5013840;28;20206;-71
2023/05/25 09:04:41;;;;;;;11.17;4.20;;;;;;;19.74;83.79;102211.22;5009027;28;20194;-72
2023/05/25 09:07:07;;;;;;;13.07;4.83;;;;;;;20.08;74.37;102181.88;5005151;28;20231;-72
2023/05/25 09:09:35;;;;;;;12.13;4.60;;;;;;;20.50;76.97;102213.16;5005503;28;20257;-71
2023/05/25 09:12:03;;;;;;;15.57;5.20;;;;;;;20.71;72.10;102200.16;5005935;28;20230;-72
2023/05/25 09:14:29;;;;;;;15.43;4.83;;;;;;;21.10;72.10;102201.91;5002863;28;20650;-72
2023/05/25 09:16:57;;;;;;;11.90;4.70;;;;;;;21.27;76.03;102229.66;4992091;28;20205;-72
2023/05/25 09:19:22;;;;;;;16.30;4.83;;;;;;;21.36;67.00;102198.34;5008112;28;20265;-72
2023/05/25 09:21:47;;;;;;;11.43;4.50;;;;;;;20.97;67.25;102203.66;5007980;28;20187;-71
2023/05/25 09:24:14;;;;;;;16.93;5.20;;;;;;;20.85;66.24;102208.84;5001099;28;20201;-71
2023/05/25 09:26:40;;;;;;;14.83;4.60;;;;;;;20.80;68.76;102230.53;5006061;28;20234;-72
2023/05/25 09:29:05;;;;;;;13.13;4.93;;;;;;;20.06;72.17;102266.81;5005724;28;20254;-72
2023/05/25 09:31:31;;;;;;;12.30;4.73;;;;;;;20.08;77.12;102298.94;5008804;28;20222;-72
2023/05/25 09:33:58;;;;;;;12.67;4.93;;;;;;;20.43;67.86;102239.19;5007376;28;20194;-71
2023/05/25 09:36:25;;;;;;;14.20;4.90;;;;;;;20.71;66.15;102230.53;4989454;28;20201;-71
2023/05/25 09:38:55;;;;;;;15.30;4.57;;;;;;;20.76;68.82;102249.63;5007316;28;20203;-71
2023/05/25 09:41:20;;;;;;;17.03;4.83;;;;;;;20.66;66.26;102253.09;5003731;28;20906;-71
2023/05/25 09:43:46;;;;;;;12.47;4.70;;;;;;;20.73;65.32;102239.22;5001703;28;20206;-71
2023/05/25 09:46:12;;;;;;;17.47;5.10;;;;;;;20.57;65.10;102245.28;5008982;28;20202;-73
2023/05/25 09:48:38;;;;;;;12.17;4.53;;;;;;;21.16;73.86;102319.16;5007774;28;20217;-74
2023/05/25 09:51:07;;;;;;;13.40;4.63;;;;;;;20.81;66.63;102271.34;5007310;28;20241;-74
2023/05/25 09:53:32;;;;;;;13.53;4.70;;;;;;;21.09;67.70;102289.63;5007062;28;20278;-74
2023/05/25 09:55:59;;;;;;;14.27;4.63;;;;;;;21.46;61.52;102241.78;5004063;28;20199;-73
2023/05/25 09:58:25;;;;;;;11.97;4.53;;;;;;;21.63;59.98;102242.59;5007868;28;20191;-73
2023/05/25 10:00:54;;;;;;;12.47;4.30;;;;;;;21.53;59.54;102251.31;5008307;28;20191;-73
2023/05/25 10:03:20;;;;;;;13.37;4.73;;;;;;;21.47;59.26;102255.69;5004664;28;20777;-72
2023/05/25 10:05:47;;;;;;;11.50;4.70;;;;;;;21.67;56.81;102240.84;5008117;28;20704;-73
2023/05/25 10:08:12;;;;;;;15.17;5.30;;;;;;;21.91;57.92;102251.19;4991747;28;20199;-73
2023/05/25 10:10:41;;;;;;;15.40;5.03;;;;;;;21.73;55.05;102246.06;5003775;28;20229;-72
2023/05/25 10:13:08;;;;;;;14.47;5.03;;;;;;;22.16;54.90;102245.00;5008572;28;20210;-72
2023/05/25 10:15:36;;;;;;;14.43;5.10;;;;;;;21.82;51.55;102230.38;5007709;28;20191;-72
2023/05/25 10:18:02;;;;;;;18.90;5.30;;;;;;;21.36;52.52;102262.66;5008613;28;20187;-72
2023/05/25 10:20:30;;;;;;;13.30;4.70;;;;;;;21.40;53.49;102293.06;4991736;28;20306;-73
2023/05/25 10:23:10;;;;;;;12.87;5.03;;;;;;;21.71;53.58;102294.75;4994016;28;20269;-71
2023/05/25 10:25:47;;;;;;;15.23;4.77;;;;;;;22.04;55.03;102305.97;5009200;28;20209;-71
2023/05/25 10:28:21;;;;;;;12.80;5.07;;;;;;;22.03;56.23;102321.63;5010172;28;20252;-72
2023/05/25 10:30:48;;;;;;;16.43;5.70;;;;;;;22.37;52.53;102283.19;4994067;28;20222;-72
2023/05/25 10:33:14;;;;;;;13.73;4.83;;;;;;;22.66;50.98;102270.81;5008885;28;20210;-72
2023/05/25 10:35:43;;;;;;;17.07;5.70;;;;;;;22.39;51.23;102296.19;5011139;28;20229;-71
2023/05/25 10:38:10;;;;;;;18.47;5.27;;;;;;;22.38;51.76;102311.00;5012212;28;20587;-72
2023/05/25 10:40:37;;;;;;;16.37;5.33;;;;;;;22.20;51.23;102297.16;5009783;28;20314;-72
2023/05/25 10:43:05;;;;;;;16.27;6.13;;;;;;;22.47;51.04;102293.56;5010166;28;20249;-73
2023/05/25 10:45:30;;;;;;;17.27;5.50;;;;;;;22.02;51.15;102309.44;4979519;28;20241;-71
2023/05/25 10:47:56;;;;;;;12.87;4.63;;;;;;;22.44;55.26;102383.22;5007963;28;20258;-71
2023/05/25 10:50:25;;;;;;;16.13;4.90;;;;;;;22.46;50.34;102297.06;5013770;28;20233;-72
2023/05/25 10:53:27;;;;;;;17.17;5.47;;;;;;;22.31;50.70;102310.19;5007596;28;20283;-72
2023/05/25 10:55:52;;;;;;;16.80;5.10;;;;;;;22.24;49.67;102301.50;4980596;28;20210;-71
2023/05/25 10:58:20;;;;;;;17.13;6.27;;;;;;;22.76;50.75;102330.84;4993902;28;20225;-72
2023/05/25 11:01:11;;;;;;;19.07;5.60;;;;;;;22.44;48.98;102289.19;4994798;28;20310;-70
2023/05/25 11:03:46;;;;;;;16.53;5.30;;;;;;;22.73;51.76;102345.66;5009790;28;20544;-71
2023/05/25 11:06:16;;;;;;;16.47;5.03;;;;;;;22.79;50.61;102307.28;5004122;28;20289;-72
2023/05/25 11:08:55;;;;;;;12.82;4.78;;;;;;;23.11;49.55;102312.28;4994607;28;20222;-72
2023/05/25 11:11:41;;;;;;;14.63;5.57;;;;;;;22.85;49.13;102302.03;5007540;28;20199;-73